KSNK/SNK METAR and TAF weather

Enter ICAO airport designator
Station Type Date Time Source
KSNK METAR 2022/01/26 08:35 UTC NOAA

KSNK 260835Z AUTO 04015KT 10SM OVC032 M03/M14 A3028 RMK AO2 T10301136


Station Type Date Time Source
KSNK Decoded METAR 2022/01/26 08:35 UTC NOAA

Snyder, Winston Field Airport, TX, United States (KSNK) 32-41-36N 100-57-01W
Jan 26, 2022 - 03:35 AM EST / 2022.01.26 0835 UTC
Wind: from the NE (040 degrees) at 17 MPH (15 KT):0
Visibility: 10 mile(s):0
Sky conditions: overcast
Temperature: 26.6 F (-3.0 C)
Windchill: 14 F (-10 C):1
Dew Point: 7.5 F (-13.6 C)
Relative Humidity: 43%
Pressure (altimeter): 30.28 in. Hg (1025 hPa)
ob: KSNK 260835Z AUTO 04015KT 10SM OVC032 M03/M14 A3028 RMK AO2 T10301136
cycle: 8

Station Type Date Time Source
KSNK TAF UTC NOAA

Error!

Example: see airport list